Time;durP1;ratioP1;P1;durP2;ratioP2;P2;SDS_P1;SDS_P2;PMS_P1;PMS_P2;Temp;Humidity;BMP_temperature;BMP_pressure;BME280_temperature;BME280_humidity;BME280_pressure;Samples;Min_cycle;Max_cycle;Signal;HPM_P1;HPM_P2
2021/07/22 00:01:37;;;;;;;5.88;3.90;;;;;;;17.92;70.24;98950.59;125856;1097;22937;-80
2021/07/22 00:04:04;;;;;;;6.07;4.20;;;;;;;17.93;68.75;98952.22;126268;1096;22821;-80
2021/07/22 00:06:31;;;;;;;6.87;4.00;;;;;;;17.91;68.29;98951.69;125822;1096;24287;-80
2021/07/22 00:08:58;;;;;;;6.15;4.70;;;;;;;17.91;68.22;98945.36;126179;1096;22794;-80
2021/07/22 00:11:25;;;;;;;9.08;4.75;;;;;;;17.90;67.91;98944.55;125770;1096;22773;-80
2021/07/22 00:14:06;;;;;;;7.58;4.25;;;;;;;17.87;67.32;98953.36;125893;1096;26418;-80
2021/07/22 00:16:33;;;;;;;7.35;4.35;;;;;;;17.84;67.81;98951.95;125886;1095;26287;-80
2021/07/22 00:19:00;;;;;;;6.60;4.47;;;;;;;17.81;67.60;98952.53;125831;1095;26268;-80
2021/07/22 00:21:26;;;;;;;8.63;4.40;;;;;;;17.79;67.59;98949.20;126292;1096;25849;-80
2021/07/22 00:23:53;;;;;;;7.93;4.65;;;;;;;17.76;67.54;98952.54;125782;1097;22794;-80
2021/07/22 00:26:20;;;;;;;6.48;4.00;;;;;;;17.74;67.76;98949.25;126285;1096;26334;-80
2021/07/22 00:28:46;;;;;;;5.78;4.20;;;;;;;17.71;67.62;98949.80;125816;1097;22853;-80
2021/07/22 00:31:13;;;;;;;7.60;4.53;;;;;;;17.71;67.76;98946.23;125910;1096;22786;-80
2021/07/22 00:33:40;;;;;;;8.95;4.75;;;;;;;17.70;68.19;98944.56;125738;1097;23789;-80
2021/07/22 00:36:12;;;;;;;6.03;4.40;;;;;;;17.72;68.33;98950.61;125805;1095;22763;-79
2021/07/22 00:38:39;;;;;;;5.80;4.25;;;;;;;17.72;69.59;98942.34;126466;1097;22774;-80
2021/07/22 00:41:10;;;;;;;9.30;4.98;;;;;;;17.71;69.55;98940.72;125945;1096;22814;-80
2021/07/22 00:43:40;;;;;;;7.03;3.33;;;;;;;17.73;69.96;98944.02;126358;1097;27466;-80
2021/07/22 00:46:10;;;;;;;6.93;3.83;;;;;;;17.74;70.37;98943.73;125747;1095;26309;-80
2021/07/22 00:48:38;;;;;;;6.60;4.28;;;;;;;17.78;70.83;98941.25;125920;1097;22796;-80
2021/07/22 00:51:05;;;;;;;7.53;4.70;;;;;;;17.77;70.54;98936.83;125554;1095;24418;-80
2021/07/22 00:53:37;;;;;;;9.20;4.87;;;;;;;17.77;71.06;98929.38;125906;1097;25985;-79
2021/07/22 00:56:04;;;;;;;7.13;4.50;;;;;;;17.75;70.54;98941.80;125982;1096;22916;-79
2021/07/22 00:58:33;;;;;;;9.33;4.70;;;;;;;17.70;69.86;98936.30;125492;1095;22853;-80
2021/07/22 01:01:00;;;;;;;8.25;5.25;;;;;;;17.67;70.46;98932.19;125985;1096;22793;-80
2021/07/22 01:03:27;;;;;;;6.97;4.90;;;;;;;17.68;70.64;98942.09;125563;1096;22781;-79
2021/07/22 01:05:54;;;;;;;8.53;5.38;;;;;;;17.68;70.21;98935.77;125478;1096;25783;-79
2021/07/22 01:08:36;;;;;;;7.53;5.00;;;;;;;17.69;70.41;98938.24;125419;1095;27182;-79
2021/07/22 01:11:24;;;;;;;8.15;5.83;;;;;;;17.71;70.06;98932.45;125456;1095;22935;-79
2021/07/22 01:13:51;;;;;;;7.18;4.90;;;;;;;17.70;69.87;98934.36;125487;1096;22839;-79
2021/07/22 01:16:18;;;;;;;7.33;4.70;;;;;;;17.69;69.29;98929.98;125512;1096;24457;-79
2021/07/22 01:18:46;;;;;;;8.17;5.10;;;;;;;17.70;69.96;98936.30;125427;1096;25883;-79
2021/07/22 01:21:14;;;;;;;8.63;5.25;;;;;;;17.67;69.82;98928.59;125486;1096;22794;-79
2021/07/22 01:23:41;;;;;;;8.00;5.68;;;;;;;17.69;70.08;98932.73;125459;1096;26475;-80
2021/07/22 01:26:26;;;;;;;9.63;5.30;;;;;;;17.70;70.30;98934.36;125406;1095;22825;-79
2021/07/22 01:28:56;;;;;;;9.43;5.65;;;;;;;17.70;70.31;98944.56;125453;1096;24420;-79
2021/07/22 01:31:24;;;;;;;9.88;6.05;;;;;;;17.66;70.60;98936.03;125475;1095;22786;-79
2021/07/22 01:33:51;;;;;;;12.18;6.23;;;;;;;17.63;70.79;98933.84;125555;1096;22781;-79
2021/07/22 01:36:22;;;;;;;10.63;5.10;;;;;;;17.59;70.66;98930.81;125423;1096;26369;-79
2021/07/22 01:38:51;;;;;;;7.53;5.78;;;;;;;17.56;70.52;98936.88;125518;1095;26700;-79
2021/07/22 01:41:19;;;;;;;;;;;;;;;17.56;70.59;98930.55;125569;1096;22770;-79
2021/07/22 01:43:47;;;;;;;6.88;4.93;;;;;;;17.52;70.61;98935.80;125508;1096;25714;-79
2021/07/22 01:46:20;;;;;;;6.83;5.75;;;;;;;17.46;70.65;98928.66;125570;1096;22804;-79
2021/07/22 01:48:48;;;;;;;7.08;5.00;;;;;;;17.44;71.07;98930.84;125438;1096;24642;-79
2021/07/22 01:51:15;;;;;;;9.48;5.18;;;;;;;17.42;71.14;98938.56;125442;1096;22755;-79
2021/07/22 01:54:03;;;;;;;7.68;4.98;;;;;;;17.42;72.04;98931.15;125412;1096;26857;-79
2021/07/22 01:56:30;;;;;;;9.53;5.33;;;;;;;17.42;72.04;98933.91;125404;1096;22775;-79
2021/07/22 01:58:57;;;;;;;8.90;5.18;;;;;;;17.42;72.11;98933.05;125448;1096;22826;-79
2021/07/22 02:01:25;;;;;;;7.53;5.58;;;;;;;17.41;71.39;98926.73;125505;1096;24163;-79
2021/07/22 02:03:57;;;;;;;7.73;5.85;;;;;;;17.42;71.93;98927.55;125407;1096;22776;-79
2021/07/22 02:06:24;;;;;;;9.48;5.35;;;;;;;17.42;72.25;98930.30;125365;1096;22776;-79
2021/07/22 02:08:54;;;;;;;7.93;5.38;;;;;;;17.40;72.45;98927.83;125405;1096;22800;-79
2021/07/22 02:11:21;;;;;;;16.25;6.40;;;;;;;17.39;72.20;98931.70;125429;1095;26261;-79
2021/07/22 02:13:49;;;;;;;7.78;5.03;;;;;;;17.39;72.52;98930.88;125475;1096;24454;-79
2021/07/22 02:16:16;;;;;;;10.78;5.78;;;;;;;17.39;72.37;98939.95;125464;1096;22932;-79
2021/07/22 02:18:45;;;;;;;8.40;5.33;;;;;;;17.41;72.33;98940.50;125467;1096;24418;-79
2021/07/22 02:21:18;;;;;;;8.10;5.33;;;;;;;17.40;71.91;98935.27;125498;1096;24423;-79
2021/07/22 02:23:48;;;;;;;12.83;6.00;;;;;;;17.37;72.17;98939.41;125441;1096;22773;-79
2021/07/22 02:26:42;;;;;;;8.63;5.48;;;;;;;17.33;72.05;98941.05;125436;1095;22785;-79
2021/07/22 02:29:09;;;;;;;8.03;5.47;;;;;;;17.34;72.60;98939.14;125544;1096;22822;-79
2021/07/22 02:31:36;;;;;;;10.58;5.28;;;;;;;17.33;72.47;98934.73;125486;1096;22871;-79
2021/07/22 02:34:05;;;;;;;9.10;5.97;;;;;;;17.34;72.17;98933.64;125456;1096;27498;-79
2021/07/22 02:36:32;;;;;;;9.13;5.93;;;;;;;17.34;72.19;98934.45;125418;1096;22800;-79
2021/07/22 02:39:18;;;;;;;12.45;6.05;;;;;;;17.33;72.15;98941.05;125427;1096;22868;-79
2021/07/22 02:41:45;;;;;;;13.50;6.35;;;;;;;17.32;70.96;98941.36;125601;1096;22776;-79
2021/07/22 02:44:12;;;;;;;9.88;6.05;;;;;;;17.30;71.17;98949.05;125563;1096;27208;-79
2021/07/22 02:46:42;;;;;;;11.63;5.80;;;;;;;17.25;70.88;98950.70;125848;1096;22794;-79
2021/07/22 02:49:09;;;;;;;10.83;5.65;;;;;;;17.23;70.60;98949.34;125485;1096;27403;-79
2021/07/22 02:51:52;;;;;;;12.10;6.35;;;;;;;17.20;70.30;98953.46;125496;1097;22822;-80
2021/07/22 02:54:20;;;;;;;14.05;5.70;;;;;;;17.15;70.21;98953.46;125521;1096;22999;-79
2021/07/22 02:56:47;;;;;;;9.38;5.55;;;;;;;17.14;70.81;98948.23;125523;1096;22779;-79
2021/07/22 02:59:20;;;;;;;11.13;5.53;;;;;;;17.12;70.61;98947.69;125616;1095;22932;-79
2021/07/22 03:01:48;;;;;;;12.20;6.00;;;;;;;17.11;70.69;98952.38;125488;1096;26251;-79
2021/07/22 03:04:19;;;;;;;10.10;5.85;;;;;;;17.09;70.77;98951.83;125546;1096;22788;-79
2021/07/22 03:06:53;;;;;;;11.15;5.55;;;;;;;17.06;70.57;98955.94;125483;1096;25878;-79
2021/07/22 03:09:20;;;;;;;10.40;6.10;;;;;;;17.07;71.04;98954.85;125501;1096;22752;-79
2021/07/22 03:11:48;;;;;;;11.43;5.70;;;;;;;17.09;71.63;98949.08;125497;1095;22928;-79
2021/07/22 03:14:16;;;;;;;9.40;5.53;;;;;;;17.13;71.88;98954.85;125515;1096;22800;-79
2021/07/22 03:16:43;;;;;;;11.50;6.38;;;;;;;17.13;72.34;98950.16;125596;1096;24418;-79
2021/07/22 03:19:22;;;;;;;10.80;5.90;;;;;;;17.14;71.75;98946.33;125513;1096;22773;-79
2021/07/22 03:22:09;;;;;;;8.68;6.03;;;;;;;17.16;71.56;98943.30;125484;1096;25897;-79
2021/07/22 03:24:55;;;;;;;11.25;6.23;;;;;;;17.16;71.57;98946.87;125443;1096;22770;-79
2021/07/22 03:27:45;;;;;;;10.53;5.80;;;;;;;17.17;71.39;98948.50;125349;1096;22828;-79
2021/07/22 03:30:18;;;;;;;12.03;6.08;;;;;;;17.21;71.28;98946.02;125515;1096;22773;-79
2021/07/22 03:33:08;;;;;;;12.73;7.07;;;;;;;17.22;71.36;98940.24;125543;1096;22957;-79
2021/07/22 03:35:41;;;;;;;12.75;5.83;;;;;;;17.25;71.39;98955.39;125439;1096;22777;-79
2021/07/22 03:38:09;;;;;;;12.07;7.00;;;;;;;17.27;71.24;98954.00;125482;1096;25881;-79
2021/07/22 03:40:40;;;;;;;12.15;6.28;;;;;;;17.28;71.31;98954.82;125473;1096;22812;-79
2021/07/22 03:43:07;;;;;;;12.55;6.33;;;;;;;17.29;71.49;98952.91;125469;1096;22803;-79
2021/07/22 03:45:38;;;;;;;11.13;6.23;;;;;;;17.31;71.64;98957.02;125542;1096;22803;-79
2021/07/22 03:48:05;;;;;;;11.10;5.70;;;;;;;17.33;72.18;98951.25;125448;1095;24477;-79
2021/07/22 03:50:31;;;;;;;13.73;6.03;;;;;;;17.36;72.10;98950.70;125457;1096;22776;-79
2021/07/22 03:52:59;;;;;;;10.00;6.05;;;;;;;17.39;72.92;98952.91;125466;1096;22999;-79
2021/07/22 03:55:27;;;;;;;11.03;6.40;;;;;;;17.41;73.14;98951.52;125561;1096;22778;-79
2021/07/22 03:58:17;;;;;;;13.23;6.60;;;;;;;17.43;73.05;98954.80;125515;1096;22785;-79
2021/07/22 04:00:57;;;;;;;11.30;7.17;;;;;;;17.46;73.02;98954.26;125478;1096;22800;-79
2021/07/22 04:03:25;;;;;;;11.07;6.40;;;;;;;17.51;72.99;98955.34;125538;1096;22800;-79
2021/07/22 04:05:52;;;;;;;11.68;7.03;;;;;;;17.54;73.05;98958.36;125486;1095;22811;-79
2021/07/22 04:08:20;;;;;;;11.70;7.07;;;;;;;17.58;72.93;98953.13;125467;1096;22982;-79
2021/07/22 04:11:06;;;;;;;15.13;6.95;;;;;;;17.60;73.09;98954.52;125423;1094;22794;-79
2021/07/22 04:13:51;;;;;;;13.30;7.27;;;;;;;17.62;73.34;98960.56;125430;1095;22776;-79
2021/07/22 04:16:30;;;;;;;12.10;7.50;;;;;;;17.62;73.56;98952.30;125478;1096;22770;-79
2021/07/22 04:19:07;;;;;;;14.03;6.98;;;;;;;17.62;73.40;98952.30;125421;1096;22784;-79
2021/07/22 04:21:54;;;;;;;14.70;7.55;;;;;;;17.64;73.08;98943.77;125456;1096;26411;-79
2021/07/22 04:24:44;;;;;;;10.58;7.43;;;;;;;17.65;73.17;98948.14;125533;1096;22823;-79
2021/07/22 04:27:27;;;;;;;13.73;7.13;;;;;;;17.65;73.23;98948.14;125469;1095;22770;-79
2021/07/22 04:30:04;;;;;;;14.83;7.20;;;;;;;17.63;73.36;98948.42;125984;1095;22978;-79
2021/07/22 04:32:40;;;;;;;10.83;7.73;;;;;;;17.62;72.99;98949.55;125731;1096;22847;-79
2021/07/22 04:35:25;;;;;;;10.58;6.60;;;;;;;17.62;73.33;98957.80;125762;1096;25888;-80
2021/07/22 04:38:18;;;;;;;12.58;7.90;;;;;;;17.63;73.30;98958.63;125830;1096;22928;-80
2021/07/22 04:41:09;;;;;;;11.77;7.97;;;;;;;17.64;73.40;98969.36;125759;1095;22856;-80
2021/07/22 04:44:05;;;;;;;12.95;7.75;;;;;;;17.63;72.60;98953.93;125428;1097;22796;-80
2021/07/22 04:46:56;;;;;;;13.08;7.60;;;;;;;17.63;72.48;98962.19;125775;1096;24132;-79
2021/07/22 04:49:42;;;;;;;16.55;8.38;;;;;;;17.61;72.55;98960.84;125754;1096;26239;-79
2021/07/22 04:52:20;;;;;;;15.25;7.60;;;;;;;17.60;72.84;98971.04;125806;1096;24453;-79
2021/07/22 04:54:57;;;;;;;14.10;8.10;;;;;;;17.57;72.72;98966.08;125901;1096;22800;-79
2021/07/22 04:57:25;;;;;;;12.60;7.78;;;;;;;17.59;73.00;98966.62;125732;1096;22785;-79
2021/07/22 04:59:52;;;;;;;11.00;7.18;;;;;;;17.52;72.80;98951.50;125876;1096;22935;-79
2021/07/22 05:02:21;;;;;;;15.13;8.10;;;;;;;17.56;72.30;98960.84;125857;1095;22854;-79
2021/07/22 05:04:48;;;;;;;10.18;7.53;;;;;;;17.57;72.16;98971.59;125731;1097;26299;-79
2021/07/22 05:07:15;;;;;;;13.73;7.93;;;;;;;17.62;72.14;98968.01;125815;1096;22822;-79
2021/07/22 05:09:42;;;;;;;12.83;7.43;;;;;;;17.65;72.27;98960.02;125898;1096;26292;-79
2021/07/22 05:12:16;;;;;;;10.53;7.93;;;;;;;17.71;72.19;98960.00;125797;1096;22942;-79
2021/07/22 05:15:13;;;;;;;13.70;8.70;;;;;;;17.76;72.19;98952.54;125718;1096;22801;-79
2021/07/22 05:17:51;;;;;;;13.85;8.05;;;;;;;17.80;72.23;98961.06;125782;1096;22787;-79
2021/07/22 05:20:36;;;;;;;17.33;8.43;;;;;;;17.82;72.08;98964.37;125938;1096;26277;-79
2021/07/22 05:23:12;;;;;;;11.40;7.33;;;;;;;17.87;72.18;98964.38;125818;1095;22792;-80
2021/07/22 05:25:58;;;;;;;11.95;7.15;;;;;;;17.95;71.63;98962.97;125801;1096;22800;-79
2021/07/22 05:28:51;;;;;;;11.20;8.18;;;;;;;17.98;71.47;98970.68;125833;1096;22811;-79
2021/07/22 05:31:43;;;;;;;18.08;8.60;;;;;;;18.03;71.87;98965.16;125789;1094;24119;-79
2021/07/22 05:34:23;;;;;;;13.30;7.98;;;;;;;18.07;71.81;98966.23;125848;1096;22875;-79
2021/07/22 05:37:01;;;;;;;13.13;8.23;;;;;;;18.11;70.94;98963.73;125741;1096;22938;-79
2021/07/22 05:39:35;;;;;;;14.30;7.67;;;;;;;18.12;70.72;98968.97;125818;1095;24268;-80
2021/07/22 05:42:04;;;;;;;16.08;7.68;;;;;;;18.12;70.77;98957.94;125800;1096;22804;-79
2021/07/22 05:44:31;;;;;;;12.83;7.33;;;;;;;18.17;70.62;98968.95;125772;1096;23000;-79
2021/07/22 05:47:12;;;;;;;20.58;8.80;;;;;;;18.21;70.56;98963.69;125820;1096;23328;-79
2021/07/22 05:49:39;;;;;;;15.43;7.55;;;;;;;18.24;70.32;98960.38;125877;1096;22778;-79
2021/07/22 05:52:06;;;;;;;12.00;8.43;;;;;;;18.31;70.87;98955.38;125726;1096;22780;-79
2021/07/22 05:54:33;;;;;;;12.80;7.80;;;;;;;18.35;70.17;98964.72;125724;1097;26327;-80
2021/07/22 05:57:01;;;;;;;17.23;7.37;;;;;;;18.38;70.63;98966.10;125563;1096;27152;-80
2021/07/22 05:59:28;;;;;;;14.98;8.93;;;;;;;18.38;69.90;98961.41;125732;1096;22828;-80
2021/07/22 06:01:54;;;;;;;16.33;7.78;;;;;;;18.44;69.89;98962.19;125726;1096;22774;-79
2021/07/22 06:04:22;;;;;;;16.63;8.03;;;;;;;18.55;70.25;98976.75;125729;1096;22854;-80
2021/07/22 06:06:50;;;;;;;14.95;7.88;;;;;;;18.63;70.48;98967.03;125671;1096;22870;-80
2021/07/22 06:09:17;;;;;;;18.28;8.50;;;;;;;18.74;69.95;98972.21;125706;1095;22781;-80
2021/07/22 06:11:44;;;;;;;17.33;8.80;;;;;;;18.87;70.02;98962.48;125569;1097;22767;-80
2021/07/22 06:14:11;;;;;;;11.30;8.18;;;;;;;18.98;68.87;98965.98;125499;1096;22778;-80
2021/07/22 06:16:38;;;;;;;12.85;8.35;;;;;;;19.04;68.48;98964.04;125434;1097;22836;-80
2021/07/22 06:19:05;;;;;;;10.93;6.70;;;;;;;19.07;67.81;98966.20;125488;1096;22797;-80
2021/07/22 06:21:32;;;;;;;14.93;8.00;;;;;;;19.10;67.72;98971.97;125456;1095;22771;-80
2021/07/22 06:23:59;;;;;;;16.68;7.83;;;;;;;19.16;67.93;98972.77;125444;1096;22793;-80
2021/07/22 06:26:26;;;;;;;13.83;8.00;;;;;;;19.23;67.22;98973.27;125470;1097;27047;-80
2021/07/22 06:28:53;;;;;;;15.70;7.20;;;;;;;19.30;67.08;98964.63;125421;1095;26264;-79
2021/07/22 06:31:19;;;;;;;14.25;7.55;;;;;;;19.37;67.00;98964.29;125383;1096;24590;-79
2021/07/22 06:33:46;;;;;;;15.35;7.80;;;;;;;19.43;67.00;98963.95;125533;1096;22804;-80
2021/07/22 06:36:13;;;;;;;14.70;7.65;;;;;;;19.53;67.10;98963.05;125439;1096;24571;-80
2021/07/22 06:38:54;;;;;;;16.48;7.28;;;;;;;19.66;66.47;98961.53;125481;1096;22957;-80
2021/07/22 06:41:22;;;;;;;17.10;7.38;;;;;;;19.78;66.44;98966.66;125465;1096;22807;-80
2021/07/22 06:43:49;;;;;;;13.70;7.50;;;;;;;19.91;66.13;98965.97;125396;1096;22797;-80
2021/07/22 06:46:16;;;;;;;11.13;7.60;;;;;;;20.03;65.59;98960.03;125383;1095;22825;-80
2021/07/22 06:48:59;;;;;;;14.85;7.40;;;;;;;20.14;64.65;98969.84;125452;1097;24457;-80
2021/07/22 06:51:40;;;;;;;13.85;7.28;;;;;;;20.22;64.25;98971.12;125978;1095;22772;-80
2021/07/22 06:54:09;;;;;;;12.55;7.30;;;;;;;20.30;64.21;98962.17;126160;1097;22801;-80
2021/07/22 06:56:36;;;;;;;12.25;7.00;;;;;;;20.39;63.68;98970.63;125916;1096;22801;-80
2021/07/22 06:59:03;;;;;;;12.38;7.28;;;;;;;20.47;63.19;98962.49;126000;1096;25880;-80
2021/07/22 07:01:30;;;;;;;13.58;7.25;;;;;;;20.49;63.12;98965.78;125890;1096;22911;-80
2021/07/22 07:03:57;;;;;;;11.00;6.93;;;;;;;20.60;63.46;98963.69;125779;1096;25851;-80
2021/07/22 07:06:24;;;;;;;9.40;6.90;;;;;;;20.69;63.51;98960.29;125452;1096;23329;-80
2021/07/22 07:08:51;;;;;;;10.95;7.08;;;;;;;20.74;62.41;98962.98;125926;1097;26316;-80
2021/07/22 07:11:18;;;;;;;12.33;7.13;;;;;;;20.80;62.84;98959.00;125988;1097;27377;-80
2021/07/22 07:13:45;;;;;;;12.05;7.10;;;;;;;20.89;62.37;98959.95;125942;1096;22770;-80
2021/07/22 07:16:11;;;;;;;13.53;7.53;;;;;;;20.94;62.55;98957.11;125559;1096;22800;-80
2021/07/22 07:18:39;;;;;;;12.73;6.75;;;;;;;21.06;62.28;98956.66;125620;1096;22791;-80
2021/07/22 07:21:20;;;;;;;10.07;6.27;;;;;;;21.19;61.98;98960.59;125479;1096;26264;-81
2021/07/22 07:23:49;;;;;;;13.05;7.03;;;;;;;21.30;62.48;98961.23;126044;1097;22770;-81
2021/07/22 07:26:16;;;;;;;11.93;6.95;;;;;;;21.41;62.21;98957.17;125544;1096;22770;-80
2021/07/22 07:28:43;;;;;;;21.75;7.15;;;;;;;21.54;61.13;98958.36;126004;1097;22852;-80
2021/07/22 07:31:11;;;;;;;12.78;6.58;;;;;;;21.67;61.13;98960.30;125590;1096;24156;-80
2021/07/22 07:33:38;;;;;;;10.48;6.53;;;;;;;21.80;60.02;98956.74;125954;1096;22844;-80
2021/07/22 07:36:05;;;;;;;11.77;6.53;;;;;;;21.82;60.02;98955.63;125527;1096;22787;-80
2021/07/22 07:38:32;;;;;;;12.03;6.13;;;;;;;21.81;59.55;98949.23;125503;1096;22790;-80
2021/07/22 07:40:59;;;;;;;11.40;6.43;;;;;;;21.86;59.44;98943.59;125435;1096;22804;-80
2021/07/22 07:43:25;;;;;;;13.68;7.20;;;;;;;21.96;59.22;98946.17;125564;1096;22861;-80
2021/07/22 07:45:53;;;;;;;9.18;6.20;;;;;;;21.98;58.61;98943.91;125548;1096;24167;-80
2021/07/22 07:48:20;;;;;;;9.75;6.23;;;;;;;21.99;59.02;98944.71;125941;1096;24572;-80
2021/07/22 07:50:47;;;;;;;9.93;5.65;;;;;;;22.04;59.63;98936.29;125418;1097;22944;-80
2021/07/22 07:53:18;;;;;;;10.35;5.95;;;;;;;22.14;59.67;98941.63;125510;1096;22824;-81
2021/07/22 07:55:47;;;;;;;11.45;6.08;;;;;;;22.20;58.51;98945.11;126093;1097;22796;-80
2021/07/22 07:58:14;;;;;;;9.25;6.18;;;;;;;22.27;57.81;98936.41;125667;1095;22794;-80
2021/07/22 08:00:42;;;;;;;8.05;5.88;;;;;;;22.29;58.16;98937.75;125694;1096;23255;-80
2021/07/22 08:03:20;;;;;;;12.88;6.48;;;;;;;22.34;58.63;98934.84;125951;1097;22771;-80
2021/07/22 08:05:48;;;;;;;9.40;5.63;;;;;;;22.40;57.98;98932.80;125982;1097;22939;-81
2021/07/22 08:08:15;;;;;;;8.53;5.73;;;;;;;22.43;57.40;98926.60;125526;1096;26289;-81
2021/07/22 08:10:41;;;;;;;11.63;6.35;;;;;;;22.46;58.20;98928.76;125533;1096;22905;-81
2021/07/22 08:13:10;;;;;;;11.10;5.43;;;;;;;22.52;58.50;98923.91;125583;1096;22804;-80
2021/07/22 08:15:38;;;;;;;9.53;5.20;;;;;;;22.48;57.52;98934.81;126058;1095;22864;-81
2021/07/22 08:18:05;;;;;;;8.37;5.47;;;;;;;22.42;57.20;98935.27;126024;1097;27344;-81
2021/07/22 08:20:31;;;;;;;13.33;5.43;;;;;;;22.29;57.13;98931.36;125552;1096;22828;-81
2021/07/22 08:22:58;;;;;;;13.08;5.58;;;;;;;22.17;57.53;98940.20;126027;1097;22780;-81
2021/07/22 08:25:25;;;;;;;8.38;5.65;;;;;;;22.02;58.56;98941.33;126003;1097;22777;-81
2021/07/22 08:27:52;;;;;;;10.40;5.75;;;;;;;21.91;58.24;98934.36;125920;1097;25993;-81
2021/07/22 08:30:19;;;;;;;10.50;5.60;;;;;;;21.79;58.65;98943.18;125460;1096;22806;-81
2021/07/22 08:32:47;;;;;;;8.57;5.87;;;;;;;21.68;57.96;98934.25;125991;1096;22810;-80
2021/07/22 08:35:14;;;;;;;8.20;5.43;;;;;;;21.64;59.36;98940.70;125496;1096;27358;-80
2021/07/22 08:37:56;;;;;;;7.83;5.30;;;;;;;21.58;59.42;98932.50;125991;1095;23010;-80
2021/07/22 08:40:26;;;;;;;8.10;5.27;;;;;;;21.59;59.19;98938.86;125952;1097;22776;-80
2021/07/22 08:42:59;;;;;;;7.50;5.28;;;;;;;21.55;58.69;98937.84;125510;1096;22771;-80
2021/07/22 08:45:26;;;;;;;8.83;5.28;;;;;;;21.54;58.94;98938.95;125565;1096;22868;-80
2021/07/22 08:47:54;;;;;;;8.43;5.30;;;;;;;21.52;58.79;98938.44;125944;1097;22797;-81
2021/07/22 08:50:20;;;;;;;10.63;5.40;;;;;;;21.51;59.44;98937.60;125933;1095;26264;-80
2021/07/22 08:52:48;;;;;;;12.13;5.43;;;;;;;21.48;59.26;98932.69;125539;1096;22806;-80
2021/07/22 08:55:30;;;;;;;9.15;5.00;;;;;;;21.42;59.12;98936.64;125961;1097;22784;-80
2021/07/22 08:57:57;;;;;;;7.93;5.40;;;;;;;21.39;59.41;98931.73;125974;1097;26267;-80
2021/07/22 09:00:25;;;;;;;10.43;5.78;;;;;;;21.39;59.90;98935.31;125932;1097;22774;-80
2021/07/22 09:02:56;;;;;;;8.33;5.45;;;;;;;21.35;59.80;98928.72;126036;1097;24415;-80
2021/07/22 09:05:27;;;;;;;8.20;4.90;;;;;;;21.32;59.91;98931.27;125990;1097;23049;-80
2021/07/22 09:07:54;;;;;;;7.60;5.13;;;;;;;21.31;60.30;98938.77;125946;1097;22749;-80
2021/07/22 09:10:21;;;;;;;14.23;7.05;;;;;;;21.31;60.55;98924.92;125927;1096;22778;-81
2021/07/22 09:12:52;;;;;;;8.38;5.53;;;;;;;21.35;60.99;98927.90;125479;1095;22934;-81
2021/07/22 09:15:19;;;;;;;7.40;5.10;;;;;;;21.40;60.47;98930.58;125947;1097;22928;-81
2021/07/22 09:17:46;;;;;;;9.20;5.25;;;;;;;21.41;60.04;98929.47;125921;1097;22867;-81
2021/07/22 09:20:37;;;;;;;10.55;4.90;;;;;;;21.46;59.50;98934.11;125909;1096;27457;-81
2021/07/22 09:23:05;;;;;;;6.45;4.58;;;;;;;21.49;59.13;98927.96;125917;1097;22776;-81
2021/07/22 09:25:40;;;;;;;8.48;5.05;;;;;;;21.53;59.24;98932.59;125504;1096;22854;-81
2021/07/22 09:28:08;;;;;;;9.60;4.95;;;;;;;21.56;58.32;98931.15;125575;1096;22793;-81
2021/07/22 09:30:35;;;;;;;8.85;5.28;;;;;;;21.58;58.51;98931.66;125555;1096;22803;-81
2021/07/22 09:33:41;;;;;;;6.43;4.95;;;;;;;21.63;58.72;98933.53;125568;1096;27266;-80
2021/07/22 09:36:21;;;;;;;10.58;5.03;;;;;;;21.63;58.24;98937.11;125897;1096;22800;-81
2021/07/22 09:38:48;;;;;;;7.37;5.27;;;;;;;21.65;58.38;98932.08;125938;1097;22800;-81
2021/07/22 09:41:19;;;;;;;8.83;4.50;;;;;;;21.68;58.33;98930.66;125888;1097;22805;-81
2021/07/22 09:43:46;;;;;;;7.13;4.20;;;;;;;21.70;58.60;98926.44;125554;1096;22803;-80
2021/07/22 09:46:15;;;;;;;9.20;5.08;;;;;;;21.71;58.40;98933.64;125532;1096;22770;-80
2021/07/22 09:49:08;;;;;;;10.43;5.25;;;;;;;21.67;58.30;98926.23;126000;1096;26340;-75
2021/07/22 09:51:38;;;;;;;6.03;5.00;;;;;;;21.69;58.50;98930.36;125469;1096;22780;-75
2021/07/22 09:54:09;;;;;;;7.45;4.98;;;;;;;21.74;58.66;98924.72;125897;1097;24456;-75
2021/07/22 09:56:37;;;;;;;8.73;5.15;;;;;;;21.76;58.39;98925.22;125446;1096;24258;-75
2021/07/22 09:59:19;;;;;;;8.83;5.43;;;;;;;21.80;58.24;98923.47;125359;1096;22773;-75
2021/07/22 10:01:48;;;;;;;6.80;5.13;;;;;;;21.85;57.81;98928.10;125422;1096;27208;-81
2021/07/22 10:04:20;;;;;;;10.65;5.30;;;;;;;21.85;57.92;98935.58;125517;1096;25858;-80
2021/07/22 10:06:49;;;;;;;10.30;5.00;;;;;;;21.85;58.42;98928.10;125465;1096;22776;-80
2021/07/22 10:09:22;;;;;;;9.28;5.75;;;;;;;21.86;58.63;98921.41;125533;1097;22927;-80
2021/07/22 10:11:50;;;;;;;9.58;5.50;;;;;;;21.83;58.49;98927.56;125508;1096;22893;-80
2021/07/22 10:14:20;;;;;;;12.23;5.58;;;;;;;21.82;59.00;98928.71;125544;1095;22779;-80
2021/07/22 10:16:49;;;;;;;8.90;4.87;;;;;;;21.83;59.69;98921.20;125533;1095;22773;-80
2021/07/22 10:19:17;;;;;;;10.58;5.10;;;;;;;21.81;59.85;98924.28;125546;1096;24470;-80
2021/07/22 10:21:44;;;;;;;8.63;4.95;;;;;;;21.78;59.29;98922.15;125588;1096;24170;-81
2021/07/22 10:24:12;;;;;;;9.43;4.15;;;;;;;21.75;58.64;98923.56;125471;1095;22776;-80
2021/07/22 10:26:40;;;;;;;7.73;4.30;;;;;;;21.70;58.53;98920.89;125418;1095;24478;-80
2021/07/22 10:29:07;;;;;;;6.03;4.33;;;;;;;21.64;57.93;98924.06;125420;1096;22779;-80
2021/07/22 10:31:40;;;;;;;7.20;4.20;;;;;;;21.56;57.58;98931.97;125580;1096;22770;-80
2021/07/22 10:34:10;;;;;;;9.07;4.30;;;;;;;21.53;58.37;98935.38;125436;1096;22794;-80
2021/07/22 10:36:52;;;;;;;5.55;3.70;;;;;;;21.51;56.81;98928.47;125542;1096;22770;-80
2021/07/22 10:39:57;;;;;;;7.13;3.78;;;;;;;21.46;58.43;98931.34;125493;1096;22828;-80
2021/07/22 10:42:44;;;;;;;10.73;4.33;;;;;;;21.40;57.85;98927.81;125459;1096;26366;-80
2021/07/22 10:45:25;;;;;;;7.83;4.15;;;;;;;21.34;58.89;98926.27;125457;1095;22797;-80
2021/07/22 10:48:04;;;;;;;8.98;4.43;;;;;;;21.30;59.40;98928.84;125421;1096;27170;-80
2021/07/22 10:50:42;;;;;;;5.43;4.23;;;;;;;21.27;58.89;98928.63;125415;1095;22806;-80
2021/07/22 10:53:10;;;;;;;9.45;5.03;;;;;;;21.24;59.74;98922.54;125766;1095;22803;-80
2021/07/22 10:55:40;;;;;;;5.65;3.90;;;;;;;21.24;59.28;98927.27;125670;1097;22824;-80
2021/07/22 10:58:33;;;;;;;6.63;4.53;;;;;;;21.26;60.16;98933.31;125878;1096;26002;-80
2021/07/22 11:01:01;;;;;;;10.28;4.48;;;;;;;21.25;59.50;98928.92;125552;1096;25476;-80
2021/07/22 11:06:14;;;;;;;6.33;4.18;;;;;;;21.27;59.64;98925.85;125877;1096;22819;-80
2021/07/22 11:08:42;;;;;;;7.80;5.30;;;;;;;21.24;59.46;98928.08;125606;1096;22776;-80
2021/07/22 11:11:16;;;;;;;8.50;5.20;;;;;;;21.26;60.21;98922.23;125910;1096;22755;-80
2021/07/22 11:13:44;;;;;;;5.98;4.48;;;;;;;21.26;59.18;98922.23;125944;1096;23049;-80
2021/07/22 11:16:26;;;;;;;7.27;4.77;;;;;;;21.22;59.40;98921.21;125842;1096;22774;-80
2021/07/22 11:18:54;;;;;;;7.08;4.58;;;;;;;21.22;59.53;98918.44;125938;1096;22774;-80
2021/07/22 11:21:26;;;;;;;9.40;5.07;;;;;;;21.25;60.56;98920.61;125861;1096;22814;-80
2021/07/22 11:24:26;;;;;;;8.28;4.85;;;;;;;21.27;59.79;98912.00;125892;1096;24415;-80
2021/07/22 11:26:56;;;;;;;6.93;4.70;;;;;;;21.31;59.47;98913.02;125944;1096;22874;-80
2021/07/22 11:29:24;;;;;;;8.98;4.48;;;;;;;21.28;59.42;98917.20;125556;1096;22767;-80
2021/07/22 11:32:02;;;;;;;8.55;5.03;;;;;;;21.30;60.05;98911.37;125662;1096;22934;-80
2021/07/22 11:34:33;;;;;;;6.13;4.98;;;;;;;21.35;58.89;98911.28;125860;1096;22755;-80
2021/07/22 11:37:18;;;;;;;7.73;4.90;;;;;;;21.40;59.35;98909.23;125850;1096;26274;-80
2021/07/22 11:39:46;;;;;;;7.60;4.73;;;;;;;21.47;59.40;98910.83;125594;1096;26287;-80
2021/07/22 11:42:14;;;;;;;7.13;5.05;;;;;;;21.48;58.35;98913.30;125519;1096;22937;-80
2021/07/22 11:44:41;;;;;;;12.50;5.60;;;;;;;21.44;57.32;98906.66;125920;1096;25990;-80
2021/07/22 11:47:15;;;;;;;7.63;4.58;;;;;;;21.36;58.12;98910.16;125970;1095;22809;-80